createdAt,value
2022-10-19T00:01:30.508Z,99622.60
2022-10-19T00:04:08.775Z,99617.20
2022-10-19T00:06:45.953Z,99616.20
2022-10-19T00:09:23.185Z,99615.40
2022-10-19T00:11:58.939Z,99614.40
2022-10-19T00:14:34.793Z,99611.20
2022-10-19T00:17:10.466Z,99614.20
2022-10-19T00:19:46.312Z,99608.00
2022-10-19T00:22:22.115Z,99610.40
2022-10-19T00:25:00.638Z,99608.20
2022-10-19T00:27:37.875Z,99612.20
2022-10-19T00:30:15.320Z,99613.60
2022-10-19T00:32:51.607Z,99613.40
2022-10-19T00:35:27.611Z,99619.20
2022-10-19T00:38:03.726Z,99612.60
2022-10-19T00:40:44.827Z,99607.80
2022-10-19T00:43:24.439Z,99607.40
2022-10-19T00:46:00.127Z,99611.00
2022-10-19T00:48:37.395Z,99606.80
2022-10-19T00:51:13.986Z,99600.20
2022-10-19T00:53:49.946Z,99594.20
2022-10-19T00:56:26.233Z,99594.00
2022-10-19T00:59:02.943Z,99596.60
2022-10-19T01:01:39.534Z,99596.60
2022-10-19T01:04:16.496Z,99590.20
2022-10-19T01:06:52.731Z,99583.00
2022-10-19T01:09:28.520Z,99585.20
2022-10-19T01:12:23.091Z,99586.00
2022-10-19T01:15:23.112Z,99585.00
2022-10-19T01:18:13.544Z,99574.40
2022-10-19T01:21:22.810Z,99567.20
2022-10-19T01:24:53.136Z,99568.40
2022-10-19T01:27:58.941Z,99569.60
2022-10-19T01:30:54.027Z,99563.20
2022-10-19T01:33:51.578Z,99561.20
2022-10-19T01:36:38.435Z,99559.20
2022-10-19T01:39:25.113Z,99561.20
2022-10-19T01:42:12.895Z,99549.40
2022-10-19T01:44:59.870Z,99547.00
2022-10-19T01:47:44.148Z,99540.60
2022-10-19T01:50:28.568Z,99539.60
2022-10-19T01:53:06.950Z,99538.40
2022-10-19T01:55:48.864Z,99540.60
2022-10-19T01:58:32.637Z,99539.20
2022-10-19T02:01:14.944Z,99541.80
2022-10-19T02:03:52.671Z,99544.60
2022-10-19T02:06:28.712Z,99546.40
2022-10-19T02:09:04.681Z,99549.20
2022-10-19T02:11:44.169Z,99552.60
2022-10-19T02:14:29.841Z,99547.40
2022-10-19T02:17:09.453Z,99546.20
2022-10-19T02:19:45.874Z,99542.20
2022-10-19T02:22:22.118Z,99538.80
2022-10-19T02:24:58.008Z,99535.60
2022-10-19T02:27:34.056Z,99536.40
2022-10-19T02:30:14.078Z,99539.20
2022-10-19T02:32:50.686Z,99538.80
2022-10-19T02:35:26.505Z,99541.80
2022-10-19T02:38:05.936Z,99535.60
2022-10-19T02:40:55.551Z,99532.00
2022-10-19T02:43:36.222Z,99534.40
2022-10-19T02:46:21.730Z,99530.60
2022-10-19T02:49:00.104Z,99526.20
2022-10-19T02:51:56.933Z,99521.80
2022-10-19T02:54:33.247Z,99523.00
2022-10-19T02:57:18.736Z,99525.00
2022-10-19T02:59:54.812Z,99520.00
2022-10-19T03:02:31.034Z,99530.00
2022-10-19T03:05:07.827Z,99524.20
2022-10-19T03:07:43.552Z,99522.20
2022-10-19T03:10:19.322Z,99524.40
2022-10-19T03:12:55.123Z,99520.40
2022-10-19T03:15:30.980Z,99518.20
2022-10-19T03:18:07.023Z,99509.40
2022-10-19T03:20:42.886Z,99523.00
2022-10-19T03:23:18.857Z,99526.20
2022-10-19T03:25:54.484Z,99518.60
2022-10-19T03:28:30.494Z,99518.00
2022-10-19T03:31:06.880Z,99514.60
2022-10-19T03:33:42.568Z,99511.60
2022-10-19T03:36:29.835Z,99516.60
2022-10-19T03:39:09.845Z,99515.40
2022-10-19T03:41:46.409Z,99517.00
2022-10-19T03:44:22.215Z,99520.20
2022-10-19T03:46:58.006Z,99520.80
2022-10-19T03:49:35.647Z,99518.40
2022-10-19T03:52:14.252Z,99507.00
2022-10-19T03:54:52.303Z,99511.40
2022-10-19T03:57:28.112Z,99505.00
2022-10-19T04:00:04.141Z,99504.60
2022-10-19T04:02:47.979Z,99502.20
2022-10-19T04:05:23.755Z,99500.60
2022-10-19T04:07:59.471Z,99497.80
2022-10-19T04:10:36.561Z,99500.20
2022-10-19T04:13:12.305Z,99496.40
2022-10-19T04:15:48.207Z,99493.00
2022-10-19T04:18:24.199Z,99484.40
2022-10-19T04:21:06.085Z,99479.40
2022-10-19T04:23:40.388Z,99484.60
2022-10-19T04:26:16.581Z,99490.40
2022-10-19T04:28:52.582Z,99489.80
2022-10-19T04:31:29.619Z,99492.00
2022-10-19T04:34:05.884Z,99493.00
2022-10-19T04:36:42.225Z,99492.00
2022-10-19T04:39:18.100Z,99492.40
2022-10-19T04:41:53.777Z,99494.00
2022-10-19T04:44:29.531Z,99492.40
2022-10-19T04:47:05.284Z,99489.80
2022-10-19T04:49:40.929Z,99486.40
2022-10-19T04:52:16.642Z,99481.80
2022-10-19T04:54:52.899Z,99481.80
2022-10-19T04:57:28.660Z,99477.00
2022-10-19T05:00:05.376Z,99474.20
2022-10-19T05:02:45.830Z,99476.40
2022-10-19T05:05:21.875Z,99477.20
2022-10-19T05:07:58.455Z,99485.80
2022-10-19T05:10:35.240Z,99484.40
2022-10-19T05:13:12.277Z,99487.20
2022-10-19T05:15:58.280Z,99485.80
2022-10-19T05:18:34.830Z,99483.80
2022-10-19T05:21:14.927Z,99487.20
2022-10-19T05:23:54.463Z,99484.00
2022-10-19T05:26:31.545Z,99484.20
2022-10-19T05:29:07.430Z,99490.20
2022-10-19T05:31:46.619Z,99491.20
2022-10-19T05:34:22.863Z,99489.80
2022-10-19T05:36:59.250Z,99487.00
2022-10-19T05:39:35.185Z,99488.40
2022-10-19T05:42:10.854Z,99484.60
2022-10-19T05:44:46.802Z,99487.80
2022-10-19T05:47:23.633Z,99488.40
2022-10-19T05:50:00.965Z,99494.00
2022-10-19T05:52:36.845Z,99501.20
2022-10-19T05:55:14.394Z,99501.60
2022-10-19T05:57:50.254Z,99501.00
2022-10-19T06:00:26.435Z,99499.20
2022-10-19T06:03:02.211Z,99504.20
2022-10-19T06:05:40.240Z,99508.20
2022-10-19T06:08:16.200Z,99512.40
2022-10-19T06:10:53.328Z,99516.20
2022-10-19T06:13:30.842Z,99513.80
2022-10-19T06:16:08.079Z,99520.80
2022-10-19T06:18:44.787Z,99520.80
2022-10-19T06:21:23.389Z,99519.00
2022-10-19T06:24:02.483Z,99516.00
2022-10-19T06:26:39.069Z,99513.80
2022-10-19T06:29:15.334Z,99518.60
2022-10-19T06:31:52.295Z,99522.20
2022-10-19T06:34:28.399Z,99520.00
2022-10-19T06:37:04.298Z,99519.60
2022-10-19T06:39:40.447Z,99517.40
2022-10-19T06:42:16.498Z,99523.20
2022-10-19T06:44:52.270Z,99522.20
2022-10-19T06:47:33.422Z,99522.40
2022-10-19T06:50:11.541Z,99528.20
2022-10-19T06:52:47.582Z,99529.60
2022-10-19T06:55:23.657Z,99530.00
2022-10-19T06:58:01.832Z,99539.00
2022-10-19T07:00:38.034Z,99544.80
2022-10-19T07:03:13.971Z,99546.40
2022-10-19T07:05:57.657Z,99545.60
2022-10-19T07:08:35.848Z,99543.00
2022-10-19T07:11:16.583Z,99545.40
2022-10-19T07:13:53.310Z,99550.20
2022-10-19T07:16:29.208Z,99556.40
2022-10-19T07:19:06.068Z,99560.60
2022-10-19T07:21:43.796Z,99564.40
2022-10-19T07:24:19.815Z,99565.60
2022-10-19T07:26:55.614Z,99564.60
2022-10-19T07:29:31.500Z,99561.20
2022-10-19T07:32:07.813Z,99558.60
2022-10-19T07:34:43.585Z,99562.80
2022-10-19T07:37:19.233Z,99565.60
2022-10-19T07:39:54.969Z,99561.60
2022-10-19T07:42:32.576Z,99557.40
2022-10-19T07:45:10.102Z,99555.60
2022-10-19T07:47:45.828Z,99562.40
2022-10-19T07:50:23.210Z,99555.20
2022-10-19T07:52:59.767Z,99570.00
2022-10-19T07:55:36.542Z,99569.40
2022-10-19T07:58:12.407Z,99574.60
2022-10-19T08:00:48.265Z,99569.80
2022-10-19T08:06:22.546Z,99569.00
2022-10-19T08:08:59.310Z,99566.40
2022-10-19T08:11:40.150Z,99566.80
2022-10-19T08:14:15.972Z,99562.00
2022-10-19T08:16:52.131Z,99556.40
2022-10-19T08:19:28.404Z,99550.20
2022-10-19T08:22:04.316Z,99558.40
2022-10-19T08:24:40.273Z,99556.00
2022-10-19T08:27:16.168Z,99560.60
2022-10-19T08:29:52.604Z,99562.00
2022-10-19T08:32:28.439Z,99556.20
2022-10-19T08:35:08.507Z,99551.60
2022-10-19T08:37:46.842Z,99560.40
2022-10-19T08:40:29.015Z,99559.20
2022-10-19T08:43:14.730Z,99558.20
2022-10-19T08:45:58.365Z,99558.20
2022-10-19T08:48:39.406Z,99556.00
2022-10-19T08:51:16.335Z,99565.80
2022-10-19T08:54:01.609Z,99561.60
2022-10-19T08:56:51.085Z,99560.60
2022-10-19T08:59:43.954Z,99559.80
2022-10-19T09:02:42.766Z,99557.00
2022-10-19T09:05:31.807Z,99553.80
2022-10-19T09:08:14.160Z,99550.80
2022-10-19T09:10:57.463Z,99549.60
2022-10-19T09:14:00.477Z,99552.20
2022-10-19T09:16:39.134Z,99556.00
2022-10-19T09:19:29.296Z,99557.40
2022-10-19T09:22:16.479Z,99561.40
2022-10-19T09:24:57.166Z,99565.40
2022-10-19T09:27:40.376Z,99559.80
2022-10-19T09:30:24.947Z,99556.80
2022-10-19T09:33:05.814Z,99556.20
2022-10-19T09:35:47.905Z,99549.80
2022-10-19T09:38:31.583Z,99548.80
2022-10-19T09:41:21.362Z,99562.60
2022-10-19T09:43:59.070Z,99559.20
2022-10-19T09:46:52.406Z,99556.40
2022-10-19T09:49:47.067Z,99555.60
2022-10-19T09:52:38.179Z,99560.20
2022-10-19T09:55:35.423Z,99561.00
2022-10-19T09:58:27.026Z,99559.60
2022-10-19T10:01:06.303Z,99553.20
2022-10-19T10:03:43.678Z,99549.60
2022-10-19T10:06:22.474Z,99555.40
2022-10-19T10:09:00.838Z,99552.40
2022-10-19T10:11:44.615Z,99544.00
2022-10-19T10:14:28.709Z,99546.20
2022-10-19T10:17:15.564Z,99541.40
2022-10-19T10:20:21.683Z,99542.40
2022-10-19T10:23:06.055Z,99545.80
2022-10-19T10:25:51.433Z,99554.20
2022-10-19T10:28:30.101Z,99554.00
2022-10-19T10:31:10.442Z,99556.00
2022-10-19T10:36:36.896Z,99553.00
2022-10-19T10:39:19.059Z,99552.60
2022-10-19T10:41:56.878Z,99557.20
2022-10-19T10:44:36.892Z,99555.40
2022-10-19T10:47:20.567Z,99549.00
2022-10-19T10:50:03.991Z,99553.60
2022-10-19T10:53:01.023Z,99547.40
2022-10-19T10:55:37.470Z,99551.20
2022-10-19T10:58:29.614Z,99546.80
2022-10-19T11:01:24.949Z,99555.00
2022-10-19T11:04:09.759Z,99552.00
2022-10-19T11:06:54.097Z,99551.80
2022-10-19T11:09:37.703Z,99548.80
2022-10-19T11:12:20.310Z,99554.00
2022-10-19T11:15:13.113Z,99557.20
2022-10-19T11:18:14.302Z,99562.00
2022-10-19T11:21:03.348Z,99557.00
2022-10-19T11:24:07.143Z,99561.80
2022-10-19T11:27:07.782Z,99566.80
2022-10-19T11:30:13.274Z,99566.80
2022-10-19T11:33:05.375Z,99565.80
2022-10-19T11:35:53.161Z,99563.20
2022-10-19T11:38:54.764Z,99564.40
2022-10-19T11:41:46.105Z,99563.00
2022-10-19T11:44:47.994Z,99566.00
2022-10-19T11:47:51.657Z,99552.20
2022-10-19T11:50:54.224Z,99541.00
2022-10-19T11:53:52.983Z,99543.80
2022-10-19T11:57:01.767Z,99540.00
2022-10-19T12:00:13.999Z,99532.40
2022-10-19T12:03:24.905Z,99529.40
2022-10-19T12:06:24.831Z,99527.60
2022-10-19T12:09:23.395Z,99522.00
2022-10-19T12:12:19.205Z,99516.40
2022-10-19T12:15:04.373Z,99519.60
2022-10-19T12:17:47.565Z,99520.60
2022-10-19T12:20:33.338Z,99518.60
2022-10-19T12:23:35.798Z,99515.80
2022-10-19T12:26:16.307Z,99516.80
2022-10-19T12:28:59.747Z,99517.80
2022-10-19T12:31:36.803Z,99522.40
2022-10-19T12:34:31.876Z,99526.20
2022-10-19T12:37:20.346Z,99525.60
2022-10-19T12:40:05.891Z,99524.80
2022-10-19T12:42:55.079Z,99516.20
2022-10-19T12:45:37.688Z,99516.60
2022-10-19T12:48:26.121Z,99511.20
2022-10-19T12:51:16.081Z,99515.80
2022-10-19T12:54:09.496Z,99518.40
2022-10-19T12:56:56.609Z,99515.80
2022-10-19T12:59:37.549Z,99519.60
2022-10-19T13:05:33.060Z,99520.80
2022-10-19T13:08:25.351Z,99522.80
2022-10-19T13:11:15.699Z,99525.40
2022-10-19T13:14:03.849Z,99530.40
2022-10-19T13:17:11.570Z,99526.00
2022-10-19T13:19:47.947Z,99518.00
2022-10-19T13:22:33.599Z,99523.20
2022-10-19T13:25:31.613Z,99527.00
2022-10-19T13:28:52.980Z,99523.00
2022-10-19T13:31:34.354Z,99521.00
2022-10-19T13:34:18.193Z,99528.20
2022-10-19T13:37:13.491Z,99532.20
2022-10-19T13:39:50.366Z,99528.00
2022-10-19T13:42:31.147Z,99532.60
2022-10-19T13:45:21.648Z,99531.60
2022-10-19T13:48:07.778Z,99540.00
2022-10-19T13:50:58.610Z,99542.60
2022-10-19T13:53:49.483Z,99540.80
2022-10-19T13:57:07.530Z,99527.20
2022-10-19T14:00:15.072Z,99533.00
2022-10-19T14:03:27.335Z,99534.20
2022-10-19T14:06:28.645Z,99530.80
2022-10-19T14:10:09.427Z,99527.40
2022-10-19T14:12:47.948Z,99524.80
2022-10-19T14:15:32.824Z,99522.60
2022-10-19T14:18:27.907Z,99526.40
2022-10-19T14:21:07.434Z,99523.00
2022-10-19T14:23:44.188Z,99527.00
2022-10-19T14:26:25.954Z,99525.40
2022-10-19T14:29:03.237Z,99523.80
2022-10-19T14:31:41.316Z,99522.40
2022-10-19T14:34:18.131Z,99533.40
2022-10-19T14:36:56.229Z,99531.60
2022-10-19T14:39:36.950Z,99528.20
2022-10-19T14:42:14.974Z,99527.20
2022-10-19T14:44:51.025Z,99522.60
2022-10-19T14:47:30.524Z,99525.00
2022-10-19T14:50:12.337Z,99524.00
2022-10-19T14:52:47.147Z,99529.20
2022-10-19T14:55:25.454Z,99527.40
2022-10-19T14:58:01.836Z,99524.80
2022-10-19T15:00:40.614Z,99522.60
2022-10-19T15:03:27.182Z,99522.00
2022-10-19T15:06:09.038Z,99529.40
2022-10-19T15:08:48.710Z,99521.40
2022-10-19T15:11:34.474Z,99521.40
2022-10-19T15:14:22.022Z,99527.60
2022-10-19T15:17:01.447Z,99526.40
2022-10-19T15:19:46.127Z,99530.80
2022-10-19T15:22:39.345Z,99537.60
2022-10-19T15:25:37.183Z,99543.00
2022-10-19T15:28:40.706Z,99547.80
2022-10-19T15:31:26.333Z,99557.80
2022-10-19T15:34:05.515Z,99559.40
2022-10-19T15:36:58.070Z,99563.60
2022-10-19T15:39:41.172Z,99556.80
2022-10-19T15:42:42.907Z,99558.60
2022-10-19T15:45:38.603Z,99552.20
2022-10-19T15:48:51.202Z,99564.20
2022-10-19T15:51:53.360Z,99566.20
2022-10-19T15:54:29.827Z,99570.60
2022-10-19T15:57:23.436Z,99563.80
2022-10-19T16:00:02.404Z,99565.20
2022-10-19T16:02:40.994Z,99564.40
2022-10-19T16:05:18.370Z,99565.80
2022-10-19T16:07:55.072Z,99568.40
2022-10-19T16:10:31.952Z,99569.20
2022-10-19T16:13:07.724Z,99574.00
2022-10-19T16:15:44.618Z,99580.60
2022-10-19T16:18:21.949Z,99590.60
2022-10-19T16:20:57.951Z,99594.20
2022-10-19T16:23:39.423Z,99596.80
2022-10-19T16:26:20.511Z,99600.80
2022-10-19T16:28:56.892Z,99608.80
2022-10-19T16:31:34.399Z,99610.40
2022-10-19T16:34:10.149Z,99613.20
2022-10-19T16:36:46.374Z,99615.20
2022-10-19T16:39:22.429Z,99611.60
2022-10-19T16:41:58.252Z,99610.00
2022-10-19T16:44:34.449Z,99612.40
2022-10-19T16:47:10.704Z,99612.00
2022-10-19T16:49:46.718Z,99606.40
2022-10-19T16:52:22.438Z,99616.20
2022-10-19T16:54:58.691Z,99620.80
2022-10-19T16:57:34.953Z,99625.60
2022-10-19T17:00:14.538Z,99635.80
2022-10-19T17:02:50.647Z,99644.60
2022-10-19T17:05:27.012Z,99652.20
2022-10-19T17:08:05.361Z,99651.60
2022-10-19T17:10:41.281Z,99654.40
2022-10-19T17:13:17.345Z,99652.80
2022-10-19T17:15:53.266Z,99658.60
2022-10-19T17:18:29.343Z,99655.20
2022-10-19T17:21:12.870Z,99654.40
2022-10-19T17:23:52.091Z,99653.80
2022-10-19T17:26:35.119Z,99653.00
2022-10-19T17:29:11.528Z,99656.20
2022-10-19T17:31:48.187Z,99657.00
2022-10-19T17:34:23.967Z,99666.60
2022-10-19T17:37:00.204Z,99671.00
2022-10-19T17:39:36.431Z,99674.00
2022-10-19T17:42:12.293Z,99671.60
2022-10-19T17:44:48.205Z,99670.80
2022-10-19T17:47:24.123Z,99673.60
2022-10-19T17:50:02.314Z,99674.20
2022-10-19T17:52:38.188Z,99679.00
2022-10-19T17:55:14.845Z,99684.40
2022-10-19T17:57:51.964Z,99686.80
2022-10-19T18:00:28.105Z,99687.80
2022-10-19T18:03:04.118Z,99689.80
2022-10-19T18:05:40.089Z,99694.20
2022-10-19T18:08:16.002Z,99695.00
2022-10-19T18:10:57.483Z,99691.20
2022-10-19T18:13:34.844Z,99693.80
2022-10-19T18:16:15.496Z,99697.60
2022-10-19T18:18:55.063Z,99707.40
2022-10-19T18:21:34.954Z,99710.80
2022-10-19T18:24:16.837Z,99710.20
2022-10-19T18:26:52.144Z,99709.00
2022-10-19T18:29:29.881Z,99711.00
2022-10-19T18:34:46.658Z,99710.60
2022-10-19T18:37:22.803Z,99713.00
2022-10-19T18:40:00.809Z,99707.20
2022-10-19T18:42:37.315Z,99713.00
2022-10-19T18:45:15.466Z,99714.20
2022-10-19T18:47:51.467Z,99717.00
2022-10-19T18:50:27.773Z,99720.80
2022-10-19T18:53:03.725Z,99719.60
2022-10-19T18:55:42.664Z,99723.60
2022-10-19T18:58:18.854Z,99725.20
2022-10-19T19:01:07.139Z,99725.20
2022-10-19T19:03:49.671Z,99728.80
2022-10-19T19:06:29.508Z,99730.00
2022-10-19T19:09:13.818Z,99734.60
2022-10-19T19:11:57.736Z,99743.60
2022-10-19T19:14:35.279Z,99743.40
2022-10-19T19:17:12.704Z,99747.20
2022-10-19T19:19:49.487Z,99746.20
2022-10-19T19:22:30.125Z,99752.00
2022-10-19T19:25:13.048Z,99752.60
2022-10-19T19:27:53.597Z,99748.00
2022-10-19T19:30:35.892Z,99749.20
2022-10-19T19:33:20.171Z,99751.20
2022-10-19T19:35:56.445Z,99756.60
2022-10-19T19:38:33.352Z,99752.60
2022-10-19T19:41:14.313Z,99751.40
2022-10-19T19:43:52.412Z,99755.40
2022-10-19T19:46:29.421Z,99756.80
2022-10-19T19:49:07.980Z,99761.00
2022-10-19T19:51:44.033Z,99766.80
2022-10-19T19:54:21.393Z,99767.00
2022-10-19T19:56:58.112Z,99771.80
2022-10-19T19:59:34.197Z,99772.20
2022-10-19T20:02:10.228Z,99775.20
2022-10-19T20:04:46.288Z,99779.40
2022-10-19T20:07:22.343Z,99774.80
2022-10-19T20:09:58.711Z,99773.20
2022-10-19T20:12:34.639Z,99779.20
2022-10-19T20:15:18.954Z,99778.00
2022-10-19T20:17:55.070Z,99779.80
2022-10-19T20:20:30.849Z,99781.40
2022-10-19T20:23:07.157Z,99786.60
2022-10-19T20:25:44.328Z,99785.80
2022-10-19T20:28:20.301Z,99780.20
2022-10-19T20:31:07.240Z,99783.60
2022-10-19T20:33:47.373Z,99787.00
2022-10-19T20:36:26.871Z,99792.40
2022-10-19T20:39:03.447Z,99796.00
2022-10-19T20:41:39.322Z,99802.40
2022-10-19T20:44:15.104Z,99803.20
2022-10-19T20:46:53.354Z,99809.00
2022-10-19T20:49:29.480Z,99804.00
2022-10-19T20:52:05.553Z,99808.40
2022-10-19T20:54:41.517Z,99811.20
2022-10-19T20:57:17.545Z,99807.60
2022-10-19T20:59:54.494Z,99808.40
2022-10-19T21:02:30.333Z,99812.60
2022-10-19T21:05:07.095Z,99811.60
2022-10-19T21:07:43.559Z,99814.40
2022-10-19T21:10:19.599Z,99809.20
2022-10-19T21:12:55.646Z,99816.60
2022-10-19T21:15:31.507Z,99814.40
2022-10-19T21:18:07.252Z,99812.00
2022-10-19T21:20:43.107Z,99810.60
2022-10-19T21:23:19.165Z,99812.40
2022-10-19T21:26:01.080Z,99820.00
2022-10-19T21:28:35.390Z,99820.80
2022-10-19T21:31:13.022Z,99820.20
2022-10-19T21:33:49.554Z,99823.00
2022-10-19T21:36:26.760Z,99825.80
2022-10-19T21:39:02.785Z,99821.40
2022-10-19T21:41:38.996Z,99816.40
2022-10-19T21:44:15.455Z,99813.20
2022-10-19T21:46:52.863Z,99811.40
2022-10-19T21:49:28.664Z,99813.20
2022-10-19T21:52:04.518Z,99815.00
2022-10-19T21:54:40.477Z,99815.80
2022-10-19T21:57:16.309Z,99809.00
2022-10-19T21:59:52.225Z,99809.00
2022-10-19T22:02:31.122Z,99806.40
2022-10-19T22:05:07.520Z,99808.40
2022-10-19T22:07:43.226Z,99815.80
2022-10-19T22:10:19.384Z,99812.40
2022-10-19T22:12:56.319Z,99819.40
2022-10-19T22:15:32.012Z,99817.20
2022-10-19T22:18:08.174Z,99815.80
2022-10-19T22:20:44.410Z,99818.20
2022-10-19T22:23:20.101Z,99813.80
2022-10-19T22:25:55.892Z,99809.80
2022-10-19T22:28:32.003Z,99824.20
2022-10-19T22:31:08.062Z,99826.00
2022-10-19T22:33:44.453Z,99825.40
2022-10-19T22:36:20.595Z,99829.40
2022-10-19T22:38:56.348Z,99824.80
2022-10-19T22:41:32.455Z,99829.40
2022-10-19T22:44:08.946Z,99825.80
2022-10-19T22:46:45.607Z,99827.20
2022-10-19T22:49:21.794Z,99822.60
2022-10-19T22:51:57.965Z,99825.40
2022-10-19T22:54:34.232Z,99826.20
2022-10-19T22:57:11.868Z,99824.20
2022-10-19T22:59:47.971Z,99822.00
2022-10-19T23:02:24.970Z,99827.00
2022-10-19T23:05:01.037Z,99825.20
2022-10-19T23:07:38.401Z,99824.60
2022-10-19T23:10:15.816Z,99829.20
2022-10-19T23:12:54.912Z,99829.40
2022-10-19T23:15:31.103Z,99833.20
2022-10-19T23:18:07.243Z,99836.60
2022-10-19T23:20:43.327Z,99831.20
2022-10-19T23:23:19.432Z,99834.60
2022-10-19T23:26:07.247Z,99838.60
2022-10-19T23:28:46.278Z,99840.20
2022-10-19T23:31:26.356Z,99849.40
2022-10-19T23:34:02.488Z,99846.60
2022-10-19T23:36:38.637Z,99850.20
2022-10-19T23:39:14.872Z,99853.80
2022-10-19T23:41:50.608Z,99853.00
2022-10-19T23:44:26.544Z,99857.20
2022-10-19T23:47:02.240Z,99855.80
2022-10-19T23:49:37.963Z,99856.40
2022-10-19T23:52:13.656Z,99855.00
2022-10-19T23:54:49.408Z,99854.00
2022-10-19T23:57:25.102Z,99859.20
